SALMON LANDING AK US NWS current weather conditions

sailwx.info

Wind from 320 at 8 knots gusting 14

Air temperature 16.3° C
Dewpoint 5.4° C

Last reported at 2020-Jun-06 22:03 UTC.
Time now 2020-Jun-06 22:59 UTC

Location: N 55°20' W 131°39'.
View on Google Maps.

See reports from other nearby stations

  
Tides and Currents Weather Stations Pressure Air Temp Water Temp Dewpoint Dewpoint Depression Visibility Wind Speed Wind Dir Waves Ship Positions
date/time (UTC)wind fromknots sea level pressurealtimeterstation pressurevisibilityair tempwater tempwave heightnotes
2020-Jun-06 22:03 320 8 gusting 14 16.3
2020-Jun-06 21:53 320 8 gusting 13 16.2
2020-Jun-06 21:43 300 8 gusting 13 16.1
2020-Jun-06 21:33 300 9 gusting 14 16.0
2020-Jun-06 21:23 320 6 gusting 13 16.0
2020-Jun-06 21:13 310 9 gusting 13 15.5
2020-Jun-06 21:03 310 11 gusting 13 15.4
2020-Jun-06 20:53 300 8 gusting 11 15.2
2020-Jun-06 20:43 300 7 gusting 9 15.1
2020-Jun-06 20:33 300 8 gusting 11 14.8
2020-Jun-06 20:23 300 8 gusting 12 14.7
2020-Jun-06 20:13 300 8 gusting 12 14.6
2020-Jun-06 20:03 300 9 gusting 13 14.5
2020-Jun-06 19:53 300 11 gusting 13 14.3
2020-Jun-06 19:43 300 11 gusting 14 14.2
2020-Jun-06 19:33 300 11 gusting 14 14.1
2020-Jun-06 19:23 300 11 gusting 13 14.1
2020-Jun-06 19:13 310 11 gusting 14 14.0
2020-Jun-06 19:03 300 12 gusting 15 14.0
2020-Jun-06 18:53 300 11 gusting 14 13.9
2020-Jun-06 18:43 300 11 gusting 13 13.7
2020-Jun-06 18:33 290 9 gusting 13 13.4
2020-Jun-06 18:23 290 8 gusting 12 13.3
2020-Jun-06 18:13 290 8 gusting 13 13.1
2020-Jun-06 18:03 290 9 gusting 13 12.9
2020-Jun-06 17:53 290 9 gusting 13 12.7
2020-Jun-06 17:43 300 9 gusting 13 12.8
2020-Jun-06 17:33 300 9 gusting 13 12.7
2020-Jun-06 17:23 310 8 gusting 12 12.7
2020-Jun-06 17:13 300 8 gusting 13 12.6
2020-Jun-06 17:03 310 8 gusting 13 12.6
2020-Jun-06 16:53 310 9 gusting 13 12.6
2020-Jun-06 16:43 310 9 gusting 14 12.5
2020-Jun-06 16:33 310 8 gusting 13 12.4
2020-Jun-06 16:23 310 8 gusting 13 12.3
2020-Jun-06 16:13 310 8 gusting 12 12.2
2020-Jun-06 16:03 310 7 gusting 12 12.2
2020-Jun-06 15:53 320 7 gusting 11 12.2
2020-Jun-06 15:43 320 8 gusting 13 12.1
2020-Jun-06 15:33 320 8 gusting 13 11.9
2020-Jun-06 15:23 320 7 gusting 12 11.9
2020-Jun-06 15:13 320 6 gusting 11 11.8
2020-Jun-06 15:03 320 4 gusting 8 11.6
2020-Jun-06 14:53 330 2 gusting 8 11.2
2020-Jun-06 14:43 010 1 gusting 6 11.1
2020-Jun-06 14:33 320 4 gusting 7 11.3
2020-Jun-06 14:23 340 4 gusting 9 10.8
2020-Jun-06 14:13 340 1 gusting 5 10.6
2020-Jun-06 14:03 020 1 gusting 5 10.3
2020-Jun-06 13:53 340 4 gusting 8 10.4
2020-Jun-06 13:43 350 2 gusting 5 10.2
2020-Jun-06 13:33 010 2 gusting 4 9.8
2020-Jun-06 13:23 020 1 gusting 4 9.7
2020-Jun-06 13:13 040 1 gusting 5 9.8
2020-Jun-06 13:03 020 2 gusting 4 9.9
2020-Jun-06 12:53 340 2 gusting 6 10.3
2020-Jun-06 12:43 350 2 gusting 7 10.2
2020-Jun-06 12:33 350 2 gusting 6 10.5
2020-Jun-06 12:23 310 4 gusting 9 10.7
2020-Jun-06 12:13 350 1 gusting 6 10.5
2020-Jun-06 12:03 330 2 gusting 6 10.6
2020-Jun-06 11:53 340 2 gusting 6 10.8
2020-Jun-06 11:43 340 2 gusting 6 10.6
2020-Jun-06 11:33 350 2 gusting 6 10.8
2020-Jun-06 11:23 330 2 gusting 6 10.9
2020-Jun-06 11:13 330 1 gusting 6 10.9
2020-Jun-06 11:03 350 1 gusting 6 10.9
2020-Jun-06 10:53 290 2 gusting 6 11.3
2020-Jun-06 10:43 330 1 gusting 6 10.9
2020-Jun-06 10:33 010 2 gusting 5 10.7
2020-Jun-06 10:23 060 2 gusting 5 11.0
2020-Jun-06 10:13 350 2 gusting 6 11.7
2020-Jun-06 10:03 290 5 gusting 11 12.1
2020-Jun-06 09:53 100 1 gusting 5 11.4
2020-Jun-06 09:43 020 1 gusting 4 11.5
2020-Jun-06 09:33 030 1 gusting 2 11.3
2020-Jun-06 09:23 340 2 gusting 5 11.4
2020-Jun-06 09:13 360 2 gusting 5 10.9
2020-Jun-06 09:03 040 1 gusting 4 10.7
2020-Jun-06 08:53 020 1 gusting 4 10.7
2020-Jun-06 08:43 020 1 gusting 5 10.9
2020-Jun-06 08:33 030 2 gusting 5 11.0
2020-Jun-06 08:23 030 2 gusting 6 11.0
2020-Jun-06 08:13 010 2 gusting 5 10.9
2020-Jun-06 08:03 010 2 gusting 6 10.8
2020-Jun-06 07:53 020 2 gusting 5 10.9
2020-Jun-06 07:43 020 2 gusting 5 11.1
2020-Jun-06 07:33 020 1 gusting 5 11.5
2020-Jun-06 07:23 010 1 gusting 4 11.4
2020-Jun-06 07:13 010 2 gusting 5 11.5
2020-Jun-06 07:03 010 2 gusting 5 11.6
2020-Jun-06 06:53 010 1 gusting 6 11.8
2020-Jun-06 06:43 020 2 gusting 6 11.9
2020-Jun-06 06:33 030 2 gusting 5 12.2
2020-Jun-06 06:23 010 2 gusting 5 12.3
2020-Jun-06 06:13 030 1 gusting 4 12.4
2020-Jun-06 06:03 010 1 gusting 4 12.6
2020-Jun-06 05:53 060 2 gusting 5 12.5
2020-Jun-06 05:43 030 2 gusting 4 13.0
2020-Jun-06 05:33 030 2 gusting 5 13.4
2020-Jun-06 05:23 360 1 gusting 5 14.1
2020-Jun-06 05:13 360 2 gusting 5 14.2
2020-Jun-06 05:03 010 2 gusting 6 14.8
2020-Jun-06 04:53 020 4 gusting 6 14.9
2020-Jun-06 04:43 010 2 gusting 6 15.4
2020-Jun-06 04:33 350 5 gusting 13 15.5
2020-Jun-06 04:23 350 5 gusting 11 15.4
2020-Jun-06 04:13 340 5 gusting 13 15.3
2020-Jun-06 04:03 320 9 gusting 15 15.1
2020-Jun-06 03:53 320 12 gusting 17 15.0
2020-Jun-06 03:43 320 13 gusting 17 15.0
2020-Jun-06 03:33 320 12 gusting 15 14.9
2020-Jun-06 03:23 310 12 gusting 17 14.8
2020-Jun-06 03:13 300 12 gusting 17 14.7
2020-Jun-06 03:03 300 13 gusting 17 14.7
2020-Jun-06 02:53 290 13 gusting 17 14.6
2020-Jun-06 02:43 290 13 gusting 15 14.5
2020-Jun-06 02:33 290 13 gusting 17 14.5
2020-Jun-06 02:23 290 13 gusting 15 14.5
2020-Jun-06 02:13 290 13 gusting 15 14.5
2020-Jun-06 02:03 300 13 gusting 15 14.7
2020-Jun-06 01:53 290 12 gusting 15 14.5
2020-Jun-06 01:43 290 12 gusting 14 14.4
2020-Jun-06 01:33 300 12 gusting 15 14.6
2020-Jun-06 01:23 300 11 gusting 14 14.7
2020-Jun-06 01:13 300 11 gusting 13 14.8
2020-Jun-06 01:03 300 11 gusting 13 14.7
2020-Jun-06 00:53 300 11 gusting 13 14.7
2020-Jun-06 00:43 310 9 gusting 13 14.5
2020-Jun-06 00:33 300 9 gusting 13 14.1
2020-Jun-06 00:23 300 9 gusting 13 14.1
2020-Jun-06 00:13 300 11 gusting 13 13.9
2020-Jun-05 23:53 300 9 gusting 13 13.9
2020-Jun-05 23:43 300 9 gusting 12 14.0
2020-Jun-05 23:33 300 7 gusting 12 14.0
2020-Jun-05 23:23 300 6 gusting 9 14.0
2020-Jun-05 23:13 300 6 gusting 8 13.8
2020-Jun-05 23:03 290 6 gusting 8 13.4
2020-Jun-05 22:53 290 6 gusting 8 13.2
2020-Jun-05 22:43 290 6 gusting 8 13.6
2020-Jun-05 22:33 150 2 gusting 6 14.3
2020-Jun-05 22:23 130 5 gusting 6 13.3
2020-Jun-05 22:13 130 6 gusting 8 13.0
2020-Jun-05 22:03 130 6 gusting 9 12.7
2020-Jun-05 21:53 130 7 gusting 9 12.7
2020-Jun-05 21:43 130 7 gusting 9 12.7
2020-Jun-05 21:33 130 8 gusting 11 12.6
2020-Jun-05 21:23 130 7 gusting 11 12.7
2020-Jun-05 21:13 130 6 gusting 8 13.1
2020-Jun-05 21:03 130 5 gusting 8 13.1
2020-Jun-05 20:53 120 4 gusting 6 13.2
2020-Jun-05 20:43 150 5 gusting 8 13.0
2020-Jun-05 20:33 140 6 gusting 9 13.0
2020-Jun-05 20:23 130 6 gusting 13 13.0
2020-Jun-05 20:13 160 6 gusting 9 13.0
2020-Jun-05 20:03 140 6 gusting 11 12.8
2020-Jun-05 19:53 130 8 gusting 13 12.7
2020-Jun-05 19:43 130 8 gusting 12 12.8
2020-Jun-05 19:33 130 7 gusting 13 12.8
2020-Jun-05 19:23 120 6 gusting 9 12.7
2020-Jun-05 19:13 120 6 gusting 11 13.0
2020-Jun-05 19:03 130 2 gusting 8 13.7
2020-Jun-05 18:53 270 0 gusting 5 13.5
2020-Jun-05 18:43 260 0 gusting 4 13.4
2020-Jun-05 18:33 180 1 gusting 4 12.4
2020-Jun-05 18:23 140 4 gusting 6 11.9
2020-Jun-05 18:13 170 5 gusting 7 12.0
2020-Jun-05 18:03 250 1 gusting 6 12.2
2020-Jun-05 17:53 300 1 gusting 4 11.5
2020-Jun-05 17:43 310 1 gusting 4 11.3
2020-Jun-05 17:33 320 1 gusting 4 11.1
2020-Jun-05 17:23 330 2 gusting 4 11.0
2020-Jun-05 17:13 300 1 gusting 2 10.8
2020-Jun-05 17:03 290 1 gusting 4 10.6
2020-Jun-05 16:53 310 1 gusting 4 10.5
2020-Jun-05 16:43 310 2 gusting 4 10.3
2020-Jun-05 16:33 300 2 gusting 5 10.2
2020-Jun-05 16:23 330 2 gusting 4 10.1
2020-Jun-05 16:13 310 2 gusting 6 9.8
2020-Jun-05 16:03 300 4 gusting 6 9.8
2020-Jun-05 15:53 320 4 gusting 6 9.8
2020-Jun-05 15:43 320 4 gusting 6 9.7
2020-Jun-05 15:33 290 5 gusting 6 9.7
2020-Jun-05 15:23 310 5 gusting 6 9.8
2020-Jun-05 15:13 300 5 gusting 6 9.7
2020-Jun-05 15:03 300 2 gusting 6 9.8
2020-Jun-05 14:53 020 0 gusting 5 9.8
2020-Jun-05 14:43 070 0 gusting 2 9.8
2020-Jun-05 14:33 100 0 gusting 2 9.8
2020-Jun-05 14:23 9.5
2020-Jun-05 14:13 070 1 gusting 4 9.2
2020-Jun-05 14:03 310 1 gusting 2 9.3
2020-Jun-05 13:53 010 1 gusting 4 9.0
2020-Jun-05 13:43 020 1 gusting 2 9.1
2020-Jun-05 13:33 350 1 gusting 2 9.0
2020-Jun-05 13:23 350 1 gusting 4 8.9
2020-Jun-05 13:13 010 2 gusting 6 8.8
2020-Jun-05 13:03 030 1 gusting 4 8.8
2020-Jun-05 12:53 040 1 gusting 2 9.0
2020-Jun-05 12:43 360 1 gusting 4 9.0
2020-Jun-05 12:33 360 2 gusting 4 9.0
2020-Jun-05 12:23 030 1 gusting 4 8.9
2020-Jun-05 12:13 330 2 gusting 5 9.1
2020-Jun-05 12:03 330 4 gusting 6 9.1
2020-Jun-05 11:53 320 6 gusting 8 9.1
2020-Jun-05 11:43 360 2 gusting 7 9.3
2020-Jun-05 11:33 090 5 gusting 8 9.7
2020-Jun-05 11:23 100 4 gusting 11 9.9
2020-Jun-05 11:13 120 4 gusting 9 9.9
2020-Jun-05 11:03 160 2 gusting 7 9.6
2020-Jun-05 10:53 070 4 gusting 7 9.3
2020-Jun-05 10:43 040 2 gusting 5 9.7
2020-Jun-05 10:33 160 4 gusting 11 9.9
2020-Jun-05 10:23 100 2 gusting 7 9.5
2020-Jun-05 10:13 090 1 gusting 7 9.1
2020-Jun-05 10:03 060 5 gusting 8 9.0
2020-Jun-05 09:53 080 4 gusting 7 8.9
2020-Jun-05 09:43 060 4 gusting 6 8.9
2020-Jun-05 09:33 070 4 gusting 6 9.0
2020-Jun-05 09:23 060 4 gusting 6 9.0
2020-Jun-05 09:13 080 4 gusting 6 8.8
2020-Jun-05 09:03 080 4 gusting 6 8.8
2020-Jun-05 08:53 070 4 gusting 6 8.8
2020-Jun-05 08:43 080 5 gusting 7 8.8
2020-Jun-05 08:33 090 5 gusting 6 8.8
2020-Jun-05 08:23 090 5 gusting 7 8.8
2020-Jun-05 08:13 080 5 gusting 7 8.9
2020-Jun-05 08:03 090 6 gusting 7 8.8
2020-Jun-05 07:53 080 4 gusting 7 9.0
2020-Jun-05 07:43 080 5 gusting 7 8.9
2020-Jun-05 07:33 080 4 gusting 9 9.2
2020-Jun-05 07:23 080 5 gusting 7 9.1
2020-Jun-05 07:13 090 4 gusting 6 9.1
2020-Jun-05 07:03 090 5 gusting 6 9.2
2020-Jun-05 06:53 080 5 gusting 6 9.1
2020-Jun-05 06:43 080 2 gusting 5 9.2
2020-Jun-05 06:33 080 2 gusting 6 9.3
2020-Jun-05 06:23 090 0 gusting 4 9.4
2020-Jun-05 06:13 070 2 gusting 5 9.5
2020-Jun-05 06:03 060 2 gusting 5 9.7
2020-Jun-05 05:53 070 1 gusting 4 9.8
2020-Jun-05 05:43 070 1 gusting 4 9.8
2020-Jun-05 05:33 070 1 gusting 6 9.8
2020-Jun-05 05:23 100 4 gusting 6 9.8
2020-Jun-05 05:13 150 2 gusting 6 9.8
2020-Jun-05 05:03 170 6 gusting 11 9.8
2020-Jun-05 04:53 170 5 gusting 8 10.0
2020-Jun-05 04:43 180 5 gusting 8 10.0
2020-Jun-05 04:33 190 5 gusting 7 10.1
2020-Jun-05 04:23 180 6 gusting 12 10.1
2020-Jun-05 04:13 180 6 gusting 9 10.1
2020-Jun-05 04:03 180 5 gusting 8 10.2
2020-Jun-05 03:53 170 6 gusting 13 10.2
2020-Jun-05 03:43 180 5 gusting 8 10.3
2020-Jun-05 03:33 200 6 gusting 11 10.3
2020-Jun-05 03:23 200 6 gusting 13 10.3
2020-Jun-05 03:13 200 7 gusting 13 10.3
2020-Jun-05 03:03 180 7 gusting 13 10.4
2020-Jun-05 02:53 160 8 gusting 13 10.3
2020-Jun-05 02:43 150 8 gusting 12 10.3
2020-Jun-05 02:33 140 7 gusting 13 10.5
2020-Jun-05 02:23 130 6 gusting 14 10.4
2020-Jun-05 02:13 120 8 gusting 14 10.3
2020-Jun-05 02:03 130 7 gusting 12 10.4
2020-Jun-05 01:53 130 8 gusting 14 10.4
2020-Jun-05 01:43 130 9 gusting 14 10.3
2020-Jun-05 01:33 140 8 gusting 13 10.2
2020-Jun-05 01:23 130 8 gusting 13 10.3
2020-Jun-05 01:13 120 9 gusting 18 10.3
2020-Jun-05 01:03 130 11 gusting 18 10.5
2020-Jun-05 00:53 140 11 gusting 15 10.7
2020-Jun-05 00:43 140 11 gusting 14 10.5
2020-Jun-05 00:33 130 9 gusting 14 10.6
2020-Jun-05 00:23 130 9 gusting 13 10.7
2020-Jun-05 00:13 130 6 gusting 12 10.9
2020-Jun-04 23:53 140 6 gusting 11 10.8
2020-Jun-04 23:43 130 6 gusting 8 10.9
2020-Jun-04 23:33 120 6 gusting 8 10.7
2020-Jun-04 23:23 120 6 gusting 9 10.6
2020-Jun-04 23:13 120 6 gusting 8 10.6
2020-Jun-04 23:03 120 5 gusting 7 10.6
2020-Jun-04 22:53 120 5 gusting 6 10.6
2020-Jun-04 22:43 130 5 gusting 6 10.6
2020-Jun-04 22:33 120 5 gusting 6 10.7
2020-Jun-04 22:23 130 4 gusting 6 10.7
2020-Jun-04 22:13 120 4 gusting 5 10.7
2020-Jun-04 22:03 130 5 gusting 6 10.6